Time;durP1;ratioP1;P1;durP2;ratioP2;P2;SDS_P1;SDS_P2;PMS_P1;PMS_P2;Temp;Humidity;BMP_temperature;BMP_pressure;BME280_temperature;BME280_humidity;BME280_pressure;Samples;Min_cycle;Max_cycle;Signal;HPM_P1;HPM_P2
2023/08/07 00:01:53;;;;;;;1.40;1.30;;;;;12.60;95656.00;;;;8339200;28;20204;-68
2023/08/07 00:05:57;;;;;;;2.55;1.20;;;;;12.50;95659.00;;;;8337317;28;20245;-68
2023/08/07 00:10:03;;;;;;;1.52;1.20;;;;;12.50;95651.00;;;;8341976;28;20812;-68
2023/08/07 00:14:06;;;;;;;1.42;1.05;;;;;12.50;95655.00;;;;8344085;28;20255;-68
2023/08/07 00:18:11;;;;;;;1.10;1.00;;;;;12.50;95653.00;;;;8327316;28;20227;-69
2023/08/07 00:22:16;;;;;;;1.30;1.20;;;;;12.50;95648.00;;;;8328047;28;20193;-69
2023/08/07 00:26:19;;;;;;;1.00;1.00;;;;;12.50;95651.00;;;;8329282;28;20208;-68
2023/08/07 00:30:23;;;;;;;1.10;1.10;;;;;12.50;95647.00;;;;8330240;28;21513;-69
2023/08/07 00:34:27;;;;;;;1.10;1.10;;;;;12.40;95633.00;;;;8336858;28;20279;-68
2023/08/07 00:38:30;;;;;;;1.00;1.00;;;;;12.40;95639.00;;;;8320556;28;20228;-69
2023/08/07 00:42:35;;;;;;;1.00;1.00;;;;;12.40;95645.00;;;;8328895;28;20201;-67
2023/08/07 00:46:43;;;;;;;1.00;1.00;;;;;12.40;95637.00;;;;8327639;28;20231;-68
2023/08/07 00:50:52;;;;;;;0.90;0.90;;;;;12.40;95650.00;;;;8319832;28;20212;-67
2023/08/07 00:54:59;;;;;;;0.90;0.90;;;;;12.40;95646.00;;;;8325309;28;21324;-69
2023/08/07 00:59:02;;;;;;;0.95;0.95;;;;;12.40;95651.00;;;;8320306;28;20273;-70
2023/08/07 01:03:13;;;;;;;1.42;0.90;;;;;12.40;95651.00;;;;8326768;28;20231;-72
2023/08/07 01:07:17;;;;;;;1.85;0.90;;;;;12.40;95649.00;;;;8318394;28;20200;-70
2023/08/07 01:11:28;;;;;;;1.25;0.85;;;;;12.30;95647.00;;;;8337767;28;20201;-68
2023/08/07 01:15:33;;;;;;;1.17;1.10;;;;;12.30;95651.00;;;;8328133;28;20224;-68
2023/08/07 01:19:37;;;;;;;0.90;0.90;;;;;12.30;95648.00;;;;8332474;28;20232;-70
2023/08/07 01:23:43;;;;;;;0.95;0.95;;;;;12.30;95660.00;;;;8320133;28;20681;-69
2023/08/07 01:27:54;;;;;;;0.80;0.80;;;;;12.30;95656.00;;;;8328432;28;20289;-71
2023/08/07 01:31:59;;;;;;;1.42;0.90;;;;;12.30;95651.00;;;;8310868;28;20236;-69
2023/08/07 01:36:08;;;;;;;0.85;0.80;;;;;12.30;95663.00;;;;8336870;28;20738;-69
2023/08/07 01:40:14;;;;;;;0.60;0.60;;;;;12.30;95646.00;;;;8330561;28;20197;-74
2023/08/07 01:44:19;;;;;;;1.00;1.00;;;;;12.30;95654.00;;;;8328664;28;20623;-71
2023/08/07 01:48:25;;;;;;;0.98;0.98;;;;;12.30;95658.00;;;;8329162;28;20298;-69
2023/08/07 01:52:30;;;;;;;0.88;0.88;;;;;12.30;95660.00;;;;8325388;28;20336;-70
2023/08/07 01:56:36;;;;;;;0.88;0.88;;;;;12.30;95650.00;;;;8335492;28;20224;-70
2023/08/07 02:00:40;;;;;;;1.10;1.00;;;;;12.30;95665.00;;;;8317507;28;20236;-72
2023/08/07 02:04:45;;;;;;;2.15;0.82;;;;;12.30;95666.00;;;;8335096;28;20217;-68
2023/08/07 02:08:48;;;;;;;0.90;0.90;;;;;12.30;95671.00;;;;8333053;28;20651;-69
2023/08/07 02:12:58;;;;;;;1.20;1.08;;;;;12.30;95670.00;;;;8334186;28;20217;-69
2023/08/07 02:17:01;;;;;;;0.90;0.90;;;;;12.20;95674.00;;;;8323546;28;20232;-73
2023/08/07 02:21:08;;;;;;;0.80;0.80;;;;;12.20;95678.00;;;;8331943;28;20201;-69
2023/08/07 02:25:13;;;;;;;0.93;0.93;;;;;12.20;95681.00;;;;8322276;28;20287;-73
2023/08/07 02:29:21;;;;;;;0.75;0.75;;;;;12.20;95684.00;;;;8312063;28;20692;-70
2023/08/07 02:33:24;;;;;;;0.77;0.77;;;;;12.20;95688.00;;;;8325677;28;20212;-68
2023/08/07 02:37:30;;;;;;;3.25;1.02;;;;;12.20;95684.00;;;;8326408;28;20332;-66
2023/08/07 02:41:36;;;;;;;0.73;0.73;;;;;12.20;95694.00;;;;8338352;28;20304;-71
2023/08/07 02:45:41;;;;;;;1.05;0.93;;;;;12.10;95694.00;;;;8321013;28;20197;-71
2023/08/07 02:49:44;;;;;;;0.77;0.73;;;;;12.20;95684.00;;;;8326688;28;20685;-68
2023/08/07 02:53:50;;;;;;;0.80;0.77;;;;;12.10;95687.00;;;;8325703;28;20196;-70
2023/08/07 02:57:56;;;;;;;2.63;0.75;;;;;12.10;95698.00;;;;8300725;28;20232;-71
2023/08/07 03:02:03;;;;;;;3.50;0.80;;;;;12.10;95703.00;;;;8346945;23;20251;-67
2023/08/07 03:06:06;;;;;;;3.40;1.00;;;;;12.10;95698.00;;;;8306141;28;20214;-70
2023/08/07 03:10:09;;;;;;;5.03;1.20;;;;;12.10;95701.00;;;;8313009;28;20426;-68
2023/08/07 03:14:14;;;;;;;1.23;1.00;;;;;12.00;95705.00;;;;8313424;28;20204;-71
2023/08/07 03:18:19;;;;;;;0.90;0.90;;;;;12.00;95718.00;;;;8313010;28;20231;-70
2023/08/07 03:22:25;;;;;;;2.08;1.00;;;;;12.00;95722.00;;;;8309671;28;20304;-71
2023/08/07 03:26:32;;;;;;;0.90;0.90;;;;;12.00;95726.00;;;;8312677;28;22227;-68
2023/08/07 03:30:35;;;;;;;2.40;0.82;;;;;12.00;95727.00;;;;8311347;28;20205;-72
2023/08/07 03:34:41;;;;;;;2.95;1.10;;;;;12.00;95736.00;;;;8308550;28;20205;-69
2023/08/07 03:38:44;;;;;;;4.13;1.20;;;;;12.00;95740.00;;;;8313280;28;20243;-72
2023/08/07 03:42:52;;;;;;;1.60;1.10;;;;;12.00;95745.00;;;;8309195;28;20206;-70
2023/08/07 03:46:56;;;;;;;0.95;0.95;;;;;12.00;95745.00;;;;8312785;28;20204;-68
2023/08/07 03:51:08;;;;;;;0.98;0.98;;;;;12.00;95745.00;;;;8312505;28;20284;-71
2023/08/07 03:55:12;;;;;;;2.15;1.00;;;;;12.00;95773.00;;;;8306075;28;20194;-72
2023/08/07 03:59:16;;;;;;;2.70;1.10;;;;;11.90;95773.00;;;;8309887;28;20319;-69
2023/08/07 04:03:21;;;;;;;1.35;1.15;;;;;11.90;95773.00;;;;8312690;28;20598;-73
2023/08/07 04:07:29;;;;;;;3.10;1.40;;;;;11.90;95780.00;;;;8312698;28;20928;-66
2023/08/07 04:11:35;;;;;;;1.00;1.00;;;;;11.90;95789.00;;;;8272565;28;20214;-73
2023/08/07 04:15:38;;;;;;;1.30;1.20;;;;;11.90;95801.00;;;;8298752;28;20197;-71
2023/08/07 04:19:45;;;;;;;1.38;1.20;;;;;11.90;95796.00;;;;8302561;28;20283;-74
2023/08/07 04:23:51;;;;;;;3.67;1.35;;;;;11.90;95800.00;;;;8304315;28;20296;-74
2023/08/07 04:28:01;;;;;;;1.95;1.50;;;;;11.90;95804.00;;;;8303248;28;20202;-73
2023/08/07 04:32:06;;;;;;;2.72;1.10;;;;;11.90;95812.00;;;;8290069;28;20236;-72
2023/08/07 04:36:09;;;;;;;3.72;1.33;;;;;11.90;95820.00;;;;8310596;28;20279;-74
2023/08/07 04:40:16;;;;;;;2.95;1.15;;;;;11.90;95817.00;;;;8313358;28;20240;-75
2023/08/07 04:44:20;;;;;;;1.30;1.20;;;;;11.90;95833.00;;;;8303798;28;20229;-87
2023/08/07 04:48:25;;;;;;;2.50;1.40;;;;;11.90;95828.00;;;;8310713;28;20208;-68
2023/08/07 04:52:29;;;;;;;2.90;1.17;;;;;11.90;95836.00;;;;8304588;28;20262;-66
2023/08/07 04:56:36;;;;;;;3.50;1.30;;;;;11.80;95833.00;;;;8313858;28;20217;-68
2023/08/07 05:00:44;;;;;;;4.60;3.40;;;;;11.80;95841.00;;;;8314643;28;20950;-74
2023/08/07 05:04:47;;;;;;;1.20;1.20;;;;;11.80;95845.00;;;;8305760;28;20307;-70
2023/08/07 05:08:51;;;;;;;3.30;1.20;;;;;11.90;95840.00;;;;8303727;28;20218;-75
2023/08/07 05:12:56;;;;;;;1.60;1.50;;;;;11.90;95849.00;;;;8303312;28;20214;-68
2023/08/07 05:17:02;;;;;;;1.50;1.30;;;;;11.90;95851.00;;;;8310100;28;20201;-71
2023/08/07 05:21:08;;;;;;;1.20;1.10;;;;;11.90;95856.00;;;;8301803;28;20233;-70
2023/08/07 05:25:15;;;;;;;5.03;1.40;;;;;11.90;95872.00;;;;8312633;28;20286;-73
2023/08/07 05:29:30;;;;;;;1.50;1.40;;;;;11.90;95869.00;;;;8304526;28;20571;-71
2023/08/07 05:33:36;;;;;;;1.40;1.30;;;;;11.80;95878.00;;;;8299728;28;20207;-75
2023/08/07 05:37:39;;;;;;;1.40;1.30;;;;;11.80;95884.00;;;;8291668;28;20196;-70
2023/08/07 05:41:42;;;;;;;2.97;1.33;;;;;11.90;95879.00;;;;8305383;28;20208;-70
2023/08/07 05:45:52;;;;;;;1.33;1.33;;;;;11.90;95867.00;;;;8300352;28;20304;-66
2023/08/07 05:49:55;;;;;;;2.70;1.27;;;;;11.90;95876.00;;;;8301162;28;20220;-79
2023/08/07 05:53:59;;;;;;;1.92;1.20;;;;;11.90;95892.00;;;;8300711;28;20236;-68
2023/08/07 05:58:05;;;;;;;1.20;1.10;;;;;11.90;95891.00;;;;8304763;28;20237;-68
2023/08/07 06:02:14;;;;;;;3.70;1.25;;;;;11.90;95889.00;;;;8295976;28;20259;-70
2023/08/07 06:06:21;;;;;;;1.25;1.25;;;;;11.90;95899.00;;;;8310883;28;20286;-69
2023/08/07 06:10:26;;;;;;;3.60;1.63;;;;;11.90;95908.00;;;;8312089;28;20205;-70
2023/08/07 06:14:30;;;;;;;1.40;1.30;;;;;11.90;95910.00;;;;8307389;28;20212;-67
2023/08/07 06:18:35;;;;;;;1.40;1.30;;;;;12.00;95912.00;;;;8313946;28;20635;-70
2023/08/07 06:22:39;;;;;;;3.38;1.23;;;;;11.90;95913.00;;;;8298619;28;20223;-67
2023/08/07 06:26:42;;;;;;;1.23;1.23;;;;;11.90;95914.00;;;;8310907;28;21030;-73
2023/08/07 06:30:45;;;;;;;2.05;1.20;;;;;12.00;95922.00;;;;8301099;28;20292;-68
2023/08/07 06:34:51;;;;;;;1.08;1.08;;;;;12.00;95922.00;;;;8309825;28;20193;-66
2023/08/07 06:38:54;;;;;;;6.03;1.50;;;;;12.00;95924.00;;;;8315735;28;20228;-70
2023/08/07 06:43:06;;;;;;;2.78;1.30;;;;;12.00;95927.00;;;;8305281;28;20206;-72
2023/08/07 06:47:09;;;;;;;2.33;1.60;;;;;12.10;95941.00;;;;8305756;28;20200;-68
2023/08/07 06:51:18;;;;;;;1.63;1.52;;;;;12.10;95935.00;;;;8269920;28;20296;-67
2023/08/07 06:55:23;;;;;;;1.17;1.17;;;;;12.10;95942.00;;;;8300170;28;20295;-68
2023/08/07 06:59:27;;;;;;;2.58;1.40;;;;;12.10;95939.00;;;;8311777;28;20220;-68
2023/08/07 07:03:30;;;;;;;3.58;1.83;;;;;12.10;95953.00;;;;8307378;28;20914;-68
2023/08/07 07:07:36;;;;;;;1.50;1.40;;;;;12.20;95946.00;;;;8313256;28;20196;-69
2023/08/07 07:11:43;;;;;;;5.10;1.60;;;;;12.20;95957.00;;;;8312808;28;20288;-66
2023/08/07 07:15:54;;;;;;;1.42;1.33;;;;;12.20;95957.00;;;;8301597;28;20204;-70
2023/08/07 07:19:57;;;;;;;2.97;1.73;;;;;12.20;95961.00;;;;8306712;28;20461;-67
2023/08/07 07:24:04;;;;;;;3.08;1.63;;;;;12.20;95964.00;;;;8307328;28;20657;-71
2023/08/07 07:28:07;;;;;;;2.83;1.70;;;;;12.20;95966.00;;;;8300226;28;20692;-69
2023/08/07 07:32:11;;;;;;;7.13;2.03;;;;;12.20;95981.00;;;;8309622;28;20208;-70
2023/08/07 07:36:18;;;;;;;1.67;1.52;;;;;12.30;95987.00;;;;8308021;28;20192;-67
2023/08/07 07:45:48;;;;;;;2.78;1.67;;;;;12.20;95996.00;;;;8296520;28;20205;-67
2023/08/07 07:50:06;;;;;;;1.70;1.60;;;;;12.30;95998.00;;;;8300377;28;20296;-69
2023/08/07 07:54:11;;;;;;;1.73;1.63;;;;;12.40;96011.00;;;;8296222;28;20205;-67
2023/08/07 07:58:17;;;;;;;8.80;1.58;;;;;12.40;96017.00;;;;8294864;28;20342;-71
2023/08/07 08:02:22;;;;;;;2.72;1.58;;;;;12.40;96016.00;;;;8295690;28;20565;-74
2023/08/07 08:06:30;;;;;;;6.28;1.67;;;;;12.50;96030.00;;;;8293240;28;20308;-69
2023/08/07 08:10:33;;;;;;;4.00;1.75;;;;;12.50;96027.00;;;;8294315;28;20889;-67
2023/08/07 08:14:37;;;;;;;1.83;1.60;;;;;12.50;96040.00;;;;8304873;28;20280;-73
2023/08/07 08:18:58;;;;;;;2.85;1.58;;;;;12.50;96034.00;;;;8303364;28;20758;-72
2023/08/07 08:23:01;;;;;;;1.90;1.77;;;;;12.50;96048.00;;;;8302300;28;20204;-69
2023/08/07 08:27:07;;;;;;;2.63;1.70;;;;;12.60;96061.00;;;;8301038;28;20203;-68
2023/08/07 08:31:10;;;;;;;2.70;1.60;;;;;12.60;96063.00;;;;8302925;28;20225;-68
2023/08/07 08:35:15;;;;;;;10.00;1.70;;;;;12.60;96067.00;;;;8311429;28;20258;-72
2023/08/07 08:39:20;;;;;;;4.32;1.80;;;;;12.50;96070.00;;;;8309866;28;20349;-71
2023/08/07 08:43:26;;;;;;;3.08;1.92;;;;;12.50;96071.00;;;;8309395;28;20204;-67
2023/08/07 08:47:36;;;;;;;3.90;1.85;;;;;12.50;96081.00;;;;8301275;28;20201;-69
2023/08/07 08:51:42;;;;;;;3.03;1.85;;;;;12.50;96082.00;;;;8310345;28;20289;-70
2023/08/07 08:55:48;;;;;;;5.63;2.10;;;;;12.40;96088.00;;;;8313179;28;20224;-68
2023/08/07 08:59:59;;;;;;;3.17;2.25;;;;;12.40;96100.00;;;;8310591;28;20243;-70
2023/08/07 09:04:05;;;;;;;4.90;2.25;;;;;12.40;96101.00;;;;8314329;28;20264;-71
2023/08/07 09:08:13;;;;;;;2.40;1.90;;;;;12.30;96110.00;;;;8305204;28;20209;-69
2023/08/07 09:12:21;;;;;;;5.28;1.95;;;;;12.30;96111.00;;;;8296727;28;20202;-71
2023/08/07 09:16:27;;;;;;;4.50;1.98;;;;;12.30;96111.00;;;;8300309;28;20194;-67
2023/08/07 09:20:31;;;;;;;4.50;2.65;;;;;12.40;96121.00;;;;8298169;28;20856;-70
2023/08/07 09:24:36;;;;;;;4.40;2.78;;;;;12.40;96123.00;;;;8303508;28;20235;-67
2023/08/07 09:28:39;;;;;;;3.10;2.53;;;;;12.40;96124.00;;;;8308643;28;21956;-69
2023/08/07 09:32:42;;;;;;;4.93;2.80;;;;;12.40;96128.00;;;;8295374;28;20197;-71
2023/08/07 09:36:48;;;;;;;6.97;3.38;;;;;12.40;96141.00;;;;8309930;28;20283;-69
2023/08/07 09:40:52;;;;;;;2.75;2.45;;;;;12.40;96135.00;;;;8305863;28;20232;-69
2023/08/07 09:44:56;;;;;;;64.13;24.23;;;;;12.40;96156.00;;;;8308550;28;20562;-70
2023/08/07 09:48:59;;;;;;;47.70;25.23;;;;;12.50;96154.00;;;;8287850;28;20207;-67
2023/08/07 09:53:04;;;;;;;13.45;9.45;;;;;12.50;96160.00;;;;8314451;28;20713;-69
2023/08/07 09:57:09;;;;;;;82.72;54.60;;;;;12.50;96153.00;;;;8306097;28;20202;-67
2023/08/07 10:01:12;;;;;;;13.85;5.25;;;;;12.60;96161.00;;;;8303393;28;20225;-72
2023/08/07 10:05:15;;;;;;;15.38;7.30;;;;;12.80;96149.00;;;;8309379;28;20559;-68
2023/08/07 10:09:21;;;;;;;25.80;12.32;;;;;12.80;96161.00;;;;8307630;28;20304;-69
2023/08/07 10:13:26;;;;;;;12.48;7.07;;;;;13.00;96166.00;;;;8298172;28;20285;-70
2023/08/07 10:17:43;;;;;;;49.25;30.33;;;;;13.20;96177.00;;;;8310108;28;20295;-70
2023/08/07 10:21:48;;;;;;;69.97;46.78;;;;;13.20;96164.00;;;;8277772;28;20238;-71
2023/08/07 10:25:53;;;;;;;14.35;5.22;;;;;13.30;96165.00;;;;8299937;28;20205;-67
2023/08/07 10:30:08;;;;;;;15.75;6.20;;;;;13.30;96174.00;;;;8302874;28;20259;-74
2023/08/07 10:34:12;;;;;;;13.63;6.97;;;;;13.40;96173.00;;;;8307093;28;20796;-72
2023/08/07 10:38:16;;;;;;;16.10;6.95;;;;;13.30;96170.00;;;;8306426;28;20206;-78
2023/08/07 10:42:19;;;;;;;10.07;5.38;;;;;13.30;96181.00;;;;8305861;28;20259;-66
2023/08/07 10:46:25;;;;;;;11.27;4.25;;;;;13.40;96180.00;;;;8302290;28;20197;-70
2023/08/07 10:50:30;;;;;;;8.75;3.15;;;;;13.40;96194.00;;;;8304611;28;20197;-70
2023/08/07 10:54:44;;;;;;;6.13;2.85;;;;;13.30;96192.00;;;;8306059;28;20320;-69
2023/08/07 10:58:52;;;;;;;6.90;2.70;;;;;13.30;96190.00;;;;8301107;28;20683;-72
2023/08/07 11:03:01;;;;;;;12.35;7.57;;;;;13.30;96186.00;;;;8302143;28;20396;-69
2023/08/07 11:07:05;;;;;;;12.82;3.95;;;;;13.40;96189.00;;;;8302901;28;20232;-69
2023/08/07 11:11:10;;;;;;;5.93;3.95;;;;;13.50;96191.00;;;;8298496;28;20209;-69
2023/08/07 11:15:14;;;;;;;3.00;2.67;;;;;13.50;96190.00;;;;8294340;28;20249;-70
2023/08/07 11:19:19;;;;;;;19.83;14.13;;;;;13.50;96192.00;;;;8296270;28;20284;-72
2023/08/07 11:23:27;;;;;;;13.85;6.47;;;;;13.50;96188.00;;;;8297104;28;20260;-80
2023/08/07 11:27:33;;;;;;;38.65;25.13;;;;;13.50;96191.00;;;;8295459;28;20264;-75
2023/08/07 11:31:36;;;;;;;21.80;13.65;;;;;13.40;96188.00;;;;8294597;28;20198;-66
2023/08/07 11:35:48;;;;;;;57.80;47.42;;;;;13.30;96196.00;;;;8297692;28;20574;-66
2023/08/07 11:39:51;;;;;;;89.22;62.90;;;;;13.20;96203.00;;;;8298704;28;20842;-68
2023/08/07 11:43:58;;;;;;;12.02;6.90;;;;;13.20;96203.00;;;;8299538;28;20239;-75
2023/08/07 11:48:02;;;;;;;9.40;3.50;;;;;13.20;96207.00;;;;8285496;28;20647;-71
2023/08/07 11:52:08;;;;;;;5.70;2.97;;;;;13.20;96197.00;;;;8315449;28;20235;-70
2023/08/07 11:56:15;;;;;;;5.07;3.25;;;;;13.10;96206.00;;;;8317837;28;20204;-69
2023/08/07 12:00:20;;;;;;;6.10;3.60;;;;;13.20;96202.00;;;;8298786;28;20221;-69
2023/08/07 12:04:23;;;;;;;8.38;3.65;;;;;13.20;96214.00;;;;8310312;28;20240;-71
2023/08/07 12:08:32;;;;;;;8.20;3.85;;;;;13.30;96214.00;;;;8315329;28;20288;-65
2023/08/07 12:12:37;;;;;;;5.13;3.25;;;;;13.50;96216.00;;;;8313582;28;20297;-70
2023/08/07 12:16:40;;;;;;;6.45;3.40;;;;;13.60;96213.00;;;;8313390;28;21068;-69
2023/08/07 12:20:43;;;;;;;6.53;3.10;;;;;13.60;96230.00;;;;8318238;28;20235;-68
2023/08/07 12:24:47;;;;;;;4.55;3.30;;;;;13.70;96216.00;;;;8311596;28;20224;-69
2023/08/07 12:28:55;;;;;;;5.13;2.78;;;;;13.70;96223.00;;;;8319922;28;20209;-68
2023/08/07 12:32:59;;;;;;;6.18;3.30;;;;;13.70;96236.00;;;;8317784;28;20236;-69
2023/08/07 12:37:05;;;;;;;9.93;4.32;;;;;13.80;96236.00;;;;8309526;28;20252;-69
2023/08/07 12:41:09;;;;;;;7.35;3.10;;;;;13.80;96245.00;;;;8314328;28;20319;-70
2023/08/07 12:45:37;;;;;;;5.75;2.83;;;;;13.80;96247.00;;;;8310750;28;20204;-69
2023/08/07 12:49:45;;;;;;;6.45;2.75;;;;;13.80;96245.00;;;;8302065;28;20540;-69
2023/08/07 12:53:51;;;;;;;4.35;3.08;;;;;13.90;96241.00;;;;8315782;28;20288;-70
2023/08/07 12:57:56;;;;;;;11.13;4.20;;;;;14.10;96257.00;;;;8317537;28;20271;-72
2023/08/07 13:02:01;;;;;;;7.88;3.38;;;;;14.40;96248.00;;;;8316304;28;20241;-70
2023/08/07 13:06:07;;;;;;;4.53;2.85;;;;;14.60;96251.00;;;;8304999;28;20240;-71
2023/08/07 13:10:14;;;;;;;8.45;3.63;;;;;14.70;96260.00;;;;8309853;28;20206;-69
2023/08/07 13:14:19;;;;;;;9.48;3.58;;;;;14.80;96259.00;;;;8314361;28;20201;-69
2023/08/07 13:18:22;;;;;;;4.93;3.22;;;;;14.80;96280.00;;;;8312462;28;20197;-72
2023/08/07 13:22:25;;;;;;;6.57;3.05;;;;;14.50;96270.00;;;;8311494;28;20645;-70
2023/08/07 13:26:30;;;;;;;8.43;3.40;;;;;14.20;96279.00;;;;8308454;28;21030;-70
2023/08/07 13:30:37;;;;;;;6.82;2.50;;;;;14.20;96276.00;;;;8306892;28;20209;-71
2023/08/07 13:34:45;;;;;;;5.80;3.53;;;;;14.20;96291.00;;;;8310394;28;20606;-69
2023/08/07 13:38:51;;;;;;;7.65;3.50;;;;;14.60;96284.00;;;;8312597;28;20220;-70
2023/08/07 13:42:55;;;;;;;7.50;3.80;;;;;15.00;96285.00;;;;8296853;28;20735;-69
2023/08/07 13:47:02;;;;;;;6.95;3.28;;;;;15.20;96284.00;;;;8293163;28;20198;-69
2023/08/07 13:51:08;;;;;;;7.85;3.75;;;;;15.30;96294.00;;;;8293509;28;20215;-68
2023/08/07 13:55:12;;;;;;;5.22;3.25;;;;;15.40;96286.00;;;;8298569;28;20301;-71
2023/08/07 13:59:21;;;;;;;5.85;3.08;;;;;15.50;96293.00;;;;8316667;28;20233;-70
2023/08/07 14:03:26;;;;;;;3.33;2.55;;;;;15.40;96301.00;;;;8302128;28;20254;-73
2023/08/07 14:07:33;;;;;;;10.18;2.58;;;;;15.30;96315.00;;;;8302382;28;20293;-70
2023/08/07 14:11:44;;;;;;;2.80;2.60;;;;;15.00;96314.00;;;;8306701;28;20586;-71
2023/08/07 14:15:47;;;;;;;4.28;2.40;;;;;14.80;96327.00;;;;8308473;28;20212;-69
2023/08/07 14:19:52;;;;;;;6.03;2.67;;;;;14.80;96333.00;;;;8299965;28;20228;-71
2023/08/07 14:23:55;;;;;;;5.57;1.98;;;;;15.00;96331.00;;;;8296357;28;20239;-70
2023/08/07 14:27:59;;;;;;;4.30;2.33;;;;;15.10;96341.00;;;;8310358;28;20966;-69
2023/08/07 14:32:05;;;;;;;3.15;1.88;;;;;14.80;96347.00;;;;8299130;28;20808;-70
2023/08/07 14:36:10;;;;;;;6.25;2.28;;;;;14.50;96351.00;;;;8301866;28;20244;-69
2023/08/07 14:40:13;;;;;;;2.85;2.00;;;;;14.60;96364.00;;;;8290124;28;20308;-73
2023/08/07 14:44:18;;;;;;;3.10;2.15;;;;;14.60;96363.00;;;;8296883;28;20227;-74
2023/08/07 14:48:21;;;;;;;5.30;2.10;;;;;14.40;96366.00;;;;8304574;28;20208;-71
2023/08/07 14:52:26;;;;;;;2.03;1.80;;;;;14.30;96362.00;;;;8309998;28;20288;-68
2023/08/07 14:56:32;;;;;;;2.55;2.00;;;;;14.10;96371.00;;;;8303994;28;21084;-71
2023/08/07 15:00:38;;;;;;;4.43;2.42;;;;;13.90;96385.00;;;;8303721;28;20229;-70
2023/08/07 15:04:45;;;;;;;3.58;2.10;;;;;13.70;96391.00;;;;8301810;28;20233;-72
2023/08/07 15:08:50;;;;;;;3.92;2.03;;;;;13.60;96390.00;;;;8304344;28;21732;-69
2023/08/07 15:12:53;;;;;;;2.63;2.28;;;;;13.50;96388.00;;;;8288367;28;20209;-70
2023/08/07 15:16:59;;;;;;;5.10;2.05;;;;;13.60;96387.00;;;;8296073;28;20272;-69
2023/08/07 15:21:03;;;;;;;3.28;2.42;;;;;13.60;96389.00;;;;8304217;28;20849;-70
2023/08/07 15:25:09;;;;;;;7.10;2.92;;;;;13.60;96390.00;;;;8305453;28;20635;-73
2023/08/07 15:29:12;;;;;;;6.47;2.60;;;;;13.60;96391.00;;;;8309871;28;20280;-69
2023/08/07 15:33:15;;;;;;;4.47;2.45;;;;;13.70;96408.00;;;;8308665;28;20918;-70
2023/08/07 15:37:18;;;;;;;5.18;2.80;;;;;13.70;96399.00;;;;8293890;28;20558;-69
2023/08/07 15:41:23;;;;;;;6.38;2.85;;;;;13.80;96395.00;;;;8291432;28;20296;-69
2023/08/07 15:45:27;;;;;;;6.90;3.38;;;;;13.80;96399.00;;;;8306236;28;20241;-68
2023/08/07 15:49:33;;;;;;;6.55;2.88;;;;;13.90;96400.00;;;;8313077;28;20206;-72
2023/08/07 15:53:36;;;;;;;6.43;2.88;;;;;13.90;96407.00;;;;8309892;28;20304;-71
2023/08/07 15:57:40;;;;;;;6.75;2.90;;;;;13.90;96414.00;;;;8312173;28;20210;-69
2023/08/07 16:01:46;;;;;;;5.80;2.60;;;;;13.90;96407.00;;;;8310600;28;20237;-71
2023/08/07 16:05:50;;;;;;;3.53;2.75;;;;;13.90;96415.00;;;;8310347;28;20206;-66
2023/08/07 16:09:55;;;;;;;5.30;2.90;;;;;14.00;96412.00;;;;8297206;28;20213;-70
2023/08/07 16:13:59;;;;;;;2.90;2.55;;;;;14.00;96407.00;;;;8308511;28;20616;-78
2023/08/07 16:18:07;;;;;;;6.25;2.85;;;;;14.00;96415.00;;;;8302182;28;20194;-67
2023/08/07 16:22:10;;;;;;;7.20;2.60;;;;;14.10;96416.00;;;;8282346;28;20221;-71
2023/08/07 16:26:13;;;;;;;5.32;2.90;;;;;14.20;96412.00;;;;8308575;28;20232;-72
2023/08/07 16:30:22;;;;;;;6.38;2.70;;;;;14.30;96409.00;;;;8314540;28;20205;-70
2023/08/07 16:34:27;;;;;;;7.18;2.83;;;;;14.40;96408.00;;;;8320546;28;20206;-73
2023/08/07 16:38:30;;;;;;;7.85;2.65;;;;;14.40;96397.00;;;;8301380;28;20682;-70
2023/08/07 16:42:34;;;;;;;6.88;2.67;;;;;14.40;96406.00;;;;8309466;28;20658;-68
2023/08/07 16:46:38;;;;;;;3.08;2.67;;;;;14.40;96404.00;;;;8316816;28;21001;-70
2023/08/07 16:50:46;;;;;;;5.68;2.58;;;;;14.50;96402.00;;;;8315754;28;20197;-68
2023/08/07 16:55:12;;;;;;;5.47;2.63;;;;;14.60;96398.00;;;;8318365;28;20213;-70
2023/08/07 16:59:17;;;;;;;3.60;2.40;;;;;14.60;96400.00;;;;8310824;28;20954;-69
2023/08/07 17:03:23;;;;;;;3.47;2.70;;;;;14.60;96396.00;;;;8315780;28;20316;-69
2023/08/07 17:07:28;;;;;;;5.68;3.05;;;;;14.60;96401.00;;;;8314593;28;20681;-70
2023/08/07 17:11:39;;;;;;;3.75;2.60;;;;;14.50;96393.00;;;;8311531;28;20635;-69
2023/08/07 17:15:42;;;;;;;4.95;2.70;;;;;14.40;96391.00;;;;8295402;28;20273;-71
2023/08/07 17:19:47;;;;;;;5.22;2.53;;;;;14.50;96398.00;;;;8314463;28;20205;-71
2023/08/07 17:23:57;;;;;;;4.45;2.90;;;;;14.50;96401.00;;;;8302216;28;20229;-67
2023/08/07 17:28:11;;;;;;;3.28;2.70;;;;;14.50;96401.00;;;;8313148;28;20202;-71
2023/08/07 17:32:16;;;;;;;4.45;2.53;;;;;14.50;96403.00;;;;8315033;28;20304;-69
2023/08/07 17:36:23;;;;;;;3.42;2.67;;;;;14.50;96397.00;;;;8313940;28;20224;-72
2023/08/07 17:40:27;;;;;;;4.10;2.58;;;;;14.60;96402.00;;;;8316768;28;20784;-66
2023/08/07 17:44:30;;;;;;;6.32;3.00;;;;;14.60;96408.00;;;;8299881;28;20703;-69
2023/08/07 17:48:35;;;;;;;4.40;2.35;;;;;14.80;96403.00;;;;8316184;28;20201;-69
2023/08/07 17:52:40;;;;;;;109.07;81.22;;;;;15.50;96411.00;;;;8312786;28;22017;-70
2023/08/07 17:56:43;;;;;;;2.97;2.38;;;;;15.50;96413.00;;;;8298214;28;20204;-73
2023/08/07 18:00:49;;;;;;;3.92;2.22;;;;;15.20;96419.00;;;;8312870;28;20197;-69
2023/08/07 18:04:55;;;;;;;5.00;2.60;;;;;15.00;96415.00;;;;8308764;28;20690;-73
2023/08/07 18:09:00;;;;;;;3.15;2.47;;;;;14.90;96416.00;;;;8314648;28;20204;-72
2023/08/07 18:13:07;;;;;;;2.53;2.33;;;;;14.70;96420.00;;;;8312053;28;20895;-73
2023/08/07 18:17:13;;;;;;;5.10;2.47;;;;;14.50;96428.00;;;;8310515;28;20194;-73
2023/08/07 18:21:19;;;;;;;4.82;2.10;;;;;14.30;96433.00;;;;8311239;28;20198;-68
2023/08/07 18:25:29;;;;;;;3.83;2.67;;;;;14.10;96438.00;;;;8308930;28;20340;-72
2023/08/07 18:29:32;;;;;;;6.03;2.58;;;;;13.90;96441.00;;;;8309514;28;20249;-71
2023/08/07 18:33:37;;;;;;;4.00;2.25;;;;;13.70;96442.00;;;;8312361;28;20197;-72
2023/08/07 18:37:40;;;;;;;3.78;2.40;;;;;13.60;96448.00;;;;8303703;28;20193;-70
2023/08/07 18:41:44;;;;;;;4.68;2.50;;;;;13.40;96445.00;;;;8312722;28;20276;-73
2023/08/07 18:45:50;;;;;;;3.28;2.40;;;;;13.30;96456.00;;;;8310931;28;20998;-75
2023/08/07 18:49:53;;;;;;;3.28;2.70;;;;;13.20;96452.00;;;;8307436;28;20703;-75
2023/08/07 18:53:57;;;;;;;7.18;2.42;;;;;13.00;96461.00;;;;8307530;28;20231;-69
2023/08/07 18:58:02;;;;;;;3.38;2.78;;;;;12.90;96456.00;;;;8309052;28;20717;-69
2023/08/07 19:02:06;;;;;;;3.00;2.30;;;;;12.70;96453.00;;;;8307774;28;20337;-68
2023/08/07 19:06:13;;;;;;;3.28;2.60;;;;;12.60;96454.00;;;;8309791;28;20243;-75
2023/08/07 19:10:19;;;;;;;3.58;2.83;;;;;12.40;96455.00;;;;8310649;28;20201;-72
2023/08/07 19:14:24;;;;;;;4.32;2.70;;;;;12.30;96449.00;;;;8320434;28;20204;-73
2023/08/07 19:18:30;;;;;;;5.47;2.60;;;;;12.10;96443.00;;;;8308695;28;20259;-69
2023/08/07 19:22:37;;;;;;;7.07;3.40;;;;;12.00;96444.00;;;;8303388;28;20213;-69
2023/08/07 19:26:44;;;;;;;4.43;2.47;;;;;11.90;96446.00;;;;8296219;28;20205;-73
2023/08/07 19:30:49;;;;;;;3.60;2.85;;;;;11.70;96449.00;;;;8307409;28;20289;-70
2023/08/07 19:35:10;;;;;;;12.75;3.25;;;;;11.50;96451.00;;;;8312982;28;20248;-69
2023/08/07 19:39:13;;;;;;;4.78;3.22;;;;;11.50;96450.00;;;;8292156;28;20610;-71
2023/08/07 19:43:17;;;;;;;6.82;3.38;;;;;11.50;96464.00;;;;8309337;28;20307;-72
2023/08/07 19:47:29;;;;;;;7.40;3.45;;;;;11.50;96457.00;;;;8309068;28;20212;-73
2023/08/07 19:51:38;;;;;;;7.40;3.67;;;;;11.50;96459.00;;;;8308645;28;20200;-69
2023/08/07 19:55:44;;;;;;;5.65;3.80;;;;;11.50;96458.00;;;;8305977;28;20299;-69
2023/08/07 19:59:47;;;;;;;9.18;3.45;;;;;11.60;96461.00;;;;8298500;28;20201;-73
2023/08/07 20:03:52;;;;;;;7.22;3.85;;;;;11.60;96457.00;;;;8309110;28;20668;-73
2023/08/07 20:07:55;;;;;;;6.28;3.55;;;;;11.60;96460.00;;;;8311221;28;20696;-68
2023/08/07 20:12:01;;;;;;;4.35;3.60;;;;;11.60;96456.00;;;;8317597;28;20662;-74
2023/08/07 20:16:06;;;;;;;5.10;3.78;;;;;11.70;96449.00;;;;8315510;28;20286;-69
2023/08/07 20:20:14;;;;;;;7.60;3.45;;;;;11.80;96451.00;;;;8312558;28;20200;-73
2023/08/07 20:24:18;;;;;;;4.72;3.35;;;;;11.80;96450.00;;;;8302028;28;20221;-71
2023/08/07 20:28:26;;;;;;;6.68;3.67;;;;;11.90;96445.00;;;;8298959;28;20925;-72
2023/08/07 20:32:32;;;;;;;9.10;3.17;;;;;12.00;96452.00;;;;8310890;28;20224;-67